sensor_id;sensor_type;location;lat;lon;timestamp;P1;durP1;ratioP1;P2;durP2;ratioP2
51382;SDS011;37475;43.358;1.248;2022-07-29T00:00:58;6.20;;;2.60;;
51382;SDS011;37475;43.358;1.248;2022-07-29T00:03:24;6.80;;;2.80;;
51382;SDS011;37475;43.358;1.248;2022-07-29T00:05:49;6.60;;;3.30;;
51382;SDS011;37475;43.358;1.248;2022-07-29T00:08:17;6.65;;;2.70;;
51382;SDS011;37475;43.358;1.248;2022-07-29T00:10:43;7.05;;;2.72;;
51382;SDS011;37475;43.358;1.248;2022-07-29T00:13:09;4.80;;;2.47;;
51382;SDS011;37475;43.358;1.248;2022-07-29T00:15:35;5.70;;;3.10;;
51382;SDS011;37475;43.358;1.248;2022-07-29T00:18:01;6.20;;;2.80;;
51382;SDS011;37475;43.358;1.248;2022-07-29T00:20:27;7.45;;;3.00;;
51382;SDS011;37475;43.358;1.248;2022-07-29T00:22:53;9.13;;;3.05;;
51382;SDS011;37475;43.358;1.248;2022-07-29T00:25:19;5.57;;;2.90;;
51382;SDS011;37475;43.358;1.248;2022-07-29T00:27:45;6.15;;;2.45;;
51382;SDS011;37475;43.358;1.248;2022-07-29T00:30:11;5.40;;;2.60;;
51382;SDS011;37475;43.358;1.248;2022-07-29T00:32:37;7.07;;;2.97;;
51382;SDS011;37475;43.358;1.248;2022-07-29T00:35:03;5.25;;;2.67;;
51382;SDS011;37475;43.358;1.248;2022-07-29T00:37:48;6.88;;;2.90;;
51382;SDS011;37475;43.358;1.248;2022-07-29T00:40:14;6.05;;;2.65;;
51382;SDS011;37475;43.358;1.248;2022-07-29T00:42:41;5.43;;;2.85;;
51382;SDS011;37475;43.358;1.248;2022-07-29T00:45:12;6.25;;;2.17;;
51382;SDS011;37475;43.358;1.248;2022-07-29T00:47:38;4.90;;;2.30;;
51382;SDS011;37475;43.358;1.248;2022-07-29T00:50:05;7.15;;;2.28;;
51382;SDS011;37475;43.358;1.248;2022-07-29T00:52:34;6.05;;;2.67;;
51382;SDS011;37475;43.358;1.248;2022-07-29T00:55:06;5.75;;;2.42;;
51382;SDS011;37475;43.358;1.248;2022-07-29T01:00:05;4.25;;;2.70;;
51382;SDS011;37475;43.358;1.248;2022-07-29T01:02:34;3.85;;;2.30;;
51382;SDS011;37475;43.358;1.248;2022-07-29T01:05:01;8.57;;;2.97;;
51382;SDS011;37475;43.358;1.248;2022-07-29T01:07:29;7.03;;;2.58;;
51382;SDS011;37475;43.358;1.248;2022-07-29T01:09:55;5.35;;;2.75;;
51382;SDS011;37475;43.358;1.248;2022-07-29T01:12:24;6.05;;;2.63;;
51382;SDS011;37475;43.358;1.248;2022-07-29T01:14:52;7.55;;;2.90;;
51382;SDS011;37475;43.358;1.248;2022-07-29T01:30:58;5.15;;;2.55;;
51382;SDS011;37475;43.358;1.248;2022-07-29T01:33:25;7.15;;;2.40;;
51382;SDS011;37475;43.358;1.248;2022-07-29T01:36:13;4.22;;;2.30;;
51382;SDS011;37475;43.358;1.248;2022-07-29T01:38:45;5.60;;;2.10;;
51382;SDS011;37475;43.358;1.248;2022-07-29T01:41:23;3.83;;;2.20;;
51382;SDS011;37475;43.358;1.248;2022-07-29T01:46:58;4.93;;;2.00;;
51382;SDS011;37475;43.358;1.248;2022-07-29T01:49:31;4.97;;;2.30;;
51382;SDS011;37475;43.358;1.248;2022-07-29T01:52:10;3.88;;;2.30;;
51382;SDS011;37475;43.358;1.248;2022-07-29T01:54:49;4.03;;;2.20;;
51382;SDS011;37475;43.358;1.248;2022-07-29T01:57:21;6.28;;;2.40;;
51382;SDS011;37475;43.358;1.248;2022-07-29T01:59:54;5.40;;;2.20;;
51382;SDS011;37475;43.358;1.248;2022-07-29T02:02:22;4.90;;;2.38;;
51382;SDS011;37475;43.358;1.248;2022-07-29T02:04:49;4.03;;;2.10;;
51382;SDS011;37475;43.358;1.248;2022-07-29T02:07:18;4.95;;;2.10;;
51382;SDS011;37475;43.358;1.248;2022-07-29T02:09:47;7.13;;;2.22;;
51382;SDS011;37475;43.358;1.248;2022-07-29T02:12:16;4.18;;;2.10;;
51382;SDS011;37475;43.358;1.248;2022-07-29T02:14:48;5.03;;;2.15;;
51382;SDS011;37475;43.358;1.248;2022-07-29T02:17:31;6.47;;;2.30;;
51382;SDS011;37475;43.358;1.248;2022-07-29T02:20:03;5.72;;;2.20;;
51382;SDS011;37475;43.358;1.248;2022-07-29T02:22:31;7.03;;;2.45;;
51382;SDS011;37475;43.358;1.248;2022-07-29T02:25:00;5.50;;;2.67;;
51382;SDS011;37475;43.358;1.248;2022-07-29T02:27:26;6.32;;;2.63;;
51382;SDS011;37475;43.358;1.248;2022-07-29T02:29:54;5.95;;;2.70;;
51382;SDS011;37475;43.358;1.248;2022-07-29T02:32:22;5.90;;;2.53;;
51382;SDS011;37475;43.358;1.248;2022-07-29T02:34:52;5.85;;;2.80;;
51382;SDS011;37475;43.358;1.248;2022-07-29T02:37:18;5.13;;;2.35;;
51382;SDS011;37475;43.358;1.248;2022-07-29T02:39:45;3.83;;;2.38;;
51382;SDS011;37475;43.358;1.248;2022-07-29T02:42:14;4.40;;;2.47;;
51382;SDS011;37475;43.358;1.248;2022-07-29T02:44:42;6.35;;;2.10;;
51382;SDS011;37475;43.358;1.248;2022-07-29T02:47:27;5.25;;;2.25;;
51382;SDS011;37475;43.358;1.248;2022-07-29T02:50:02;6.50;;;2.85;;
51382;SDS011;37475;43.358;1.248;2022-07-29T02:55:32;7.30;;;2.55;;
51382;SDS011;37475;43.358;1.248;2022-07-29T03:00:53;7.00;;;2.70;;
51382;SDS011;37475;43.358;1.248;2022-07-29T03:03:25;6.60;;;2.70;;
51382;SDS011;37475;43.358;1.248;2022-07-29T03:05:55;7.30;;;3.17;;
51382;SDS011;37475;43.358;1.248;2022-07-29T03:08:23;5.10;;;2.35;;
51382;SDS011;37475;43.358;1.248;2022-07-29T03:10:49;6.18;;;3.22;;
51382;SDS011;37475;43.358;1.248;2022-07-29T03:13:16;7.90;;;3.00;;
51382;SDS011;37475;43.358;1.248;2022-07-29T03:15:43;8.00;;;3.33;;
51382;SDS011;37475;43.358;1.248;2022-07-29T03:18:11;8.55;;;2.90;;
51382;SDS011;37475;43.358;1.248;2022-07-29T03:20:37;5.05;;;3.22;;
51382;SDS011;37475;43.358;1.248;2022-07-29T03:23:04;6.97;;;3.42;;
51382;SDS011;37475;43.358;1.248;2022-07-29T03:25:30;7.15;;;3.33;;
51382;SDS011;37475;43.358;1.248;2022-07-29T03:27:56;9.70;;;3.72;;
51382;SDS011;37475;43.358;1.248;2022-07-29T03:30:22;8.38;;;3.65;;
51382;SDS011;37475;43.358;1.248;2022-07-29T03:32:49;8.77;;;4.05;;
51382;SDS011;37475;43.358;1.248;2022-07-29T03:35:15;8.63;;;3.30;;
51382;SDS011;37475;43.358;1.248;2022-07-29T03:37:42;6.25;;;3.80;;
51382;SDS011;37475;43.358;1.248;2022-07-29T03:40:09;7.82;;;3.78;;
51382;SDS011;37475;43.358;1.248;2022-07-29T03:42:40;6.45;;;3.72;;
51382;SDS011;37475;43.358;1.248;2022-07-29T03:45:09;6.38;;;3.13;;
51382;SDS011;37475;43.358;1.248;2022-07-29T03:47:38;6.35;;;3.08;;
51382;SDS011;37475;43.358;1.248;2022-07-29T03:50:11;7.18;;;3.00;;
51382;SDS011;37475;43.358;1.248;2022-07-29T03:52:39;9.10;;;3.45;;
51382;SDS011;37475;43.358;1.248;2022-07-29T03:55:06;6.22;;;3.08;;
51382;SDS011;37475;43.358;1.248;2022-07-29T03:57:33;6.82;;;2.92;;
51382;SDS011;37475;43.358;1.248;2022-07-29T04:00:02;7.57;;;2.92;;
51382;SDS011;37475;43.358;1.248;2022-07-29T04:02:30;5.05;;;2.88;;
51382;SDS011;37475;43.358;1.248;2022-07-29T04:04:57;5.90;;;2.72;;
51382;SDS011;37475;43.358;1.248;2022-07-29T04:07:24;9.30;;;3.20;;
51382;SDS011;37475;43.358;1.248;2022-07-29T04:09:49;6.55;;;3.00;;
51382;SDS011;37475;43.358;1.248;2022-07-29T04:12:15;6.53;;;3.10;;
51382;SDS011;37475;43.358;1.248;2022-07-29T04:14:41;6.93;;;3.72;;
51382;SDS011;37475;43.358;1.248;2022-07-29T04:17:07;6.65;;;3.17;;
51382;SDS011;37475;43.358;1.248;2022-07-29T04:19:33;7.28;;;3.25;;
51382;SDS011;37475;43.358;1.248;2022-07-29T04:21:59;6.32;;;3.10;;
51382;SDS011;37475;43.358;1.248;2022-07-29T04:24:25;8.07;;;3.20;;
51382;SDS011;37475;43.358;1.248;2022-07-29T04:26:52;7.97;;;3.15;;
51382;SDS011;37475;43.358;1.248;2022-07-29T04:29:18;6.85;;;3.05;;
51382;SDS011;37475;43.358;1.248;2022-07-29T04:31:44;7.85;;;3.80;;
51382;SDS011;37475;43.358;1.248;2022-07-29T04:34:10;7.03;;;3.28;;
51382;SDS011;37475;43.358;1.248;2022-07-29T04:36:38;6.13;;;3.08;;
51382;SDS011;37475;43.358;1.248;2022-07-29T04:39:04;6.25;;;3.38;;
51382;SDS011;37475;43.358;1.248;2022-07-29T04:41:30;8.55;;;3.33;;
51382;SDS011;37475;43.358;1.248;2022-07-29T04:43:56;5.47;;;3.63;;
51382;SDS011;37475;43.358;1.248;2022-07-29T04:46:22;12.07;;;3.83;;
51382;SDS011;37475;43.358;1.248;2022-07-29T04:48:48;12.90;;;4.70;;
51382;SDS011;37475;43.358;1.248;2022-07-29T04:51:14;9.85;;;4.15;;
51382;SDS011;37475;43.358;1.248;2022-07-29T04:53:40;10.75;;;4.47;;
51382;SDS011;37475;43.358;1.248;2022-07-29T04:56:06;10.60;;;4.35;;
51382;SDS011;37475;43.358;1.248;2022-07-29T04:58:35;7.78;;;3.85;;
51382;SDS011;37475;43.358;1.248;2022-07-29T05:01:01;10.52;;;4.40;;
51382;SDS011;37475;43.358;1.248;2022-07-29T05:03:28;8.77;;;4.65;;
51382;SDS011;37475;43.358;1.248;2022-07-29T05:05:54;11.10;;;4.38;;
51382;SDS011;37475;43.358;1.248;2022-07-29T05:08:20;13.70;;;4.70;;
51382;SDS011;37475;43.358;1.248;2022-07-29T05:10:46;10.30;;;5.47;;
51382;SDS011;37475;43.358;1.248;2022-07-29T05:13:12;7.97;;;4.55;;
51382;SDS011;37475;43.358;1.248;2022-07-29T05:15:37;7.22;;;4.47;;
51382;SDS011;37475;43.358;1.248;2022-07-29T05:18:03;11.30;;;4.45;;
51382;SDS011;37475;43.358;1.248;2022-07-29T05:20:30;11.93;;;4.32;;
51382;SDS011;37475;43.358;1.248;2022-07-29T05:22:58;7.65;;;3.97;;
51382;SDS011;37475;43.358;1.248;2022-07-29T05:25:25;8.27;;;4.13;;
51382;SDS011;37475;43.358;1.248;2022-07-29T05:27:52;9.10;;;4.40;;
51382;SDS011;37475;43.358;1.248;2022-07-29T05:30:19;8.45;;;4.03;;
51382;SDS011;37475;43.358;1.248;2022-07-29T05:32:46;10.20;;;4.22;;
51382;SDS011;37475;43.358;1.248;2022-07-29T05:35:12;9.02;;;4.45;;
51382;SDS011;37475;43.358;1.248;2022-07-29T05:37:38;9.95;;;4.65;;
51382;SDS011;37475;43.358;1.248;2022-07-29T05:40:05;8.43;;;4.53;;
51382;SDS011;37475;43.358;1.248;2022-07-29T05:42:32;9.52;;;4.22;;
51382;SDS011;37475;43.358;1.248;2022-07-29T05:44:58;13.32;;;5.65;;
51382;SDS011;37475;43.358;1.248;2022-07-29T05:47:25;12.35;;;5.68;;
51382;SDS011;37475;43.358;1.248;2022-07-29T05:49:52;10.35;;;5.00;;
51382;SDS011;37475;43.358;1.248;2022-07-29T05:52:18;12.15;;;5.40;;
51382;SDS011;37475;43.358;1.248;2022-07-29T05:54:45;10.00;;;5.05;;
51382;SDS011;37475;43.358;1.248;2022-07-29T05:57:17;10.70;;;5.18;;
51382;SDS011;37475;43.358;1.248;2022-07-29T05:59:46;9.40;;;5.18;;
51382;SDS011;37475;43.358;1.248;2022-07-29T06:02:13;8.40;;;5.28;;
51382;SDS011;37475;43.358;1.248;2022-07-29T06:04:39;13.02;;;6.95;;
51382;SDS011;37475;43.358;1.248;2022-07-29T06:07:05;15.73;;;5.90;;
51382;SDS011;37475;43.358;1.248;2022-07-29T06:09:31;9.60;;;4.85;;
51382;SDS011;37475;43.358;1.248;2022-07-29T06:11:58;8.25;;;5.32;;
51382;SDS011;37475;43.358;1.248;2022-07-29T06:14:24;9.35;;;4.63;;
51382;SDS011;37475;43.358;1.248;2022-07-29T06:16:51;12.60;;;5.05;;
51382;SDS011;37475;43.358;1.248;2022-07-29T06:19:18;10.75;;;4.85;;
51382;SDS011;37475;43.358;1.248;2022-07-29T06:21:44;8.48;;;4.50;;
51382;SDS011;37475;43.358;1.248;2022-07-29T06:24:11;6.22;;;4.10;;
51382;SDS011;37475;43.358;1.248;2022-07-29T06:26:38;9.05;;;4.47;;
51382;SDS011;37475;43.358;1.248;2022-07-29T06:29:06;10.80;;;4.47;;
51382;SDS011;37475;43.358;1.248;2022-07-29T06:31:32;9.40;;;4.70;;
51382;SDS011;37475;43.358;1.248;2022-07-29T06:33:58;12.30;;;5.60;;
51382;SDS011;37475;43.358;1.248;2022-07-29T06:36:23;8.35;;;4.72;;
51382;SDS011;37475;43.358;1.248;2022-07-29T06:38:49;12.10;;;4.90;;
51382;SDS011;37475;43.358;1.248;2022-07-29T06:41:15;9.85;;;5.22;;
51382;SDS011;37475;43.358;1.248;2022-07-29T06:43:42;8.13;;;5.15;;
51382;SDS011;37475;43.358;1.248;2022-07-29T06:46:10;11.45;;;4.85;;
51382;SDS011;37475;43.358;1.248;2022-07-29T06:48:39;11.60;;;5.82;;
51382;SDS011;37475;43.358;1.248;2022-07-29T06:51:07;10.20;;;5.10;;
51382;SDS011;37475;43.358;1.248;2022-07-29T06:53:34;12.02;;;5.20;;
51382;SDS011;37475;43.358;1.248;2022-07-29T06:56:01;10.18;;;5.30;;
51382;SDS011;37475;43.358;1.248;2022-07-29T06:58:28;14.60;;;5.85;;
51382;SDS011;37475;43.358;1.248;2022-07-29T07:00:55;8.55;;;5.30;;
51382;SDS011;37475;43.358;1.248;2022-07-29T07:03:22;11.20;;;5.47;;
51382;SDS011;37475;43.358;1.248;2022-07-29T07:05:49;12.63;;;5.22;;
51382;SDS011;37475;43.358;1.248;2022-07-29T07:08:17;10.32;;;5.85;;
51382;SDS011;37475;43.358;1.248;2022-07-29T07:10:44;15.38;;;5.80;;
51382;SDS011;37475;43.358;1.248;2022-07-29T07:13:10;9.13;;;5.45;;
51382;SDS011;37475;43.358;1.248;2022-07-29T07:15:36;12.73;;;5.88;;
51382;SDS011;37475;43.358;1.248;2022-07-29T07:18:03;10.13;;;5.85;;
51382;SDS011;37475;43.358;1.248;2022-07-29T07:20:33;8.70;;;5.13;;
51382;SDS011;37475;43.358;1.248;2022-07-29T07:23:00;8.43;;;4.68;;
51382;SDS011;37475;43.358;1.248;2022-07-29T07:25:26;8.88;;;5.72;;
51382;SDS011;37475;43.358;1.248;2022-07-29T07:27:52;10.63;;;5.88;;
51382;SDS011;37475;43.358;1.248;2022-07-29T07:30:17;12.20;;;6.20;;
51382;SDS011;37475;43.358;1.248;2022-07-29T07:32:43;10.43;;;6.07;;
51382;SDS011;37475;43.358;1.248;2022-07-29T07:35:09;10.27;;;5.93;;
51382;SDS011;37475;43.358;1.248;2022-07-29T07:37:36;8.68;;;5.93;;
51382;SDS011;37475;43.358;1.248;2022-07-29T07:40:03;10.45;;;5.88;;
51382;SDS011;37475;43.358;1.248;2022-07-29T07:42:30;10.50;;;5.10;;
51382;SDS011;37475;43.358;1.248;2022-07-29T07:44:56;11.98;;;5.82;;
51382;SDS011;37475;43.358;1.248;2022-07-29T07:47:22;8.35;;;5.20;;
51382;SDS011;37475;43.358;1.248;2022-07-29T07:49:49;12.15;;;5.60;;
51382;SDS011;37475;43.358;1.248;2022-07-29T07:52:16;8.57;;;4.72;;
51382;SDS011;37475;43.358;1.248;2022-07-29T07:54:44;10.48;;;5.28;;
51382;SDS011;37475;43.358;1.248;2022-07-29T07:57:12;10.98;;;5.38;;
51382;SDS011;37475;43.358;1.248;2022-07-29T07:59:39;9.88;;;5.60;;
51382;SDS011;37475;43.358;1.248;2022-07-29T08:02:05;9.00;;;5.80;;
51382;SDS011;37475;43.358;1.248;2022-07-29T08:04:32;11.43;;;5.80;;
51382;SDS011;37475;43.358;1.248;2022-07-29T08:06:58;9.13;;;5.32;;
51382;SDS011;37475;43.358;1.248;2022-07-29T08:09:26;14.93;;;6.35;;
51382;SDS011;37475;43.358;1.248;2022-07-29T08:11:53;10.65;;;6.07;;
51382;SDS011;37475;43.358;1.248;2022-07-29T08:14:20;13.00;;;6.80;;
51382;SDS011;37475;43.358;1.248;2022-07-29T08:16:46;12.57;;;5.53;;
51382;SDS011;37475;43.358;1.248;2022-07-29T08:19:12;9.38;;;5.28;;
51382;SDS011;37475;43.358;1.248;2022-07-29T08:21:38;8.65;;;5.25;;
51382;SDS011;37475;43.358;1.248;2022-07-29T08:24:04;8.77;;;4.50;;
51382;SDS011;37475;43.358;1.248;2022-07-29T08:26:49;8.93;;;4.82;;
51382;SDS011;37475;43.358;1.248;2022-07-29T08:29:15;11.75;;;5.78;;
51382;SDS011;37475;43.358;1.248;2022-07-29T08:31:41;8.48;;;5.47;;
51382;SDS011;37475;43.358;1.248;2022-07-29T08:34:07;10.48;;;5.32;;
51382;SDS011;37475;43.358;1.248;2022-07-29T08:36:34;10.65;;;5.20;;
51382;SDS011;37475;43.358;1.248;2022-07-29T08:39:00;8.90;;;5.30;;
51382;SDS011;37475;43.358;1.248;2022-07-29T08:41:27;9.10;;;5.07;;
51382;SDS011;37475;43.358;1.248;2022-07-29T08:43:53;7.25;;;4.60;;
51382;SDS011;37475;43.358;1.248;2022-07-29T08:46:19;11.45;;;5.78;;
51382;SDS011;37475;43.358;1.248;2022-07-29T08:48:46;7.65;;;4.70;;
51382;SDS011;37475;43.358;1.248;2022-07-29T08:51:19;8.85;;;5.20;;
51382;SDS011;37475;43.358;1.248;2022-07-29T08:53:47;10.30;;;4.82;;
51382;SDS011;37475;43.358;1.248;2022-07-29T08:56:17;8.20;;;4.35;;
51382;SDS011;37475;43.358;1.248;2022-07-29T08:58:44;9.25;;;5.10;;
51382;SDS011;37475;43.358;1.248;2022-07-29T09:01:14;8.23;;;4.72;;
51382;SDS011;37475;43.358;1.248;2022-07-29T09:03:46;8.80;;;4.97;;
51382;SDS011;37475;43.358;1.248;2022-07-29T09:06:14;9.02;;;4.28;;
51382;SDS011;37475;43.358;1.248;2022-07-29T09:08:40;12.02;;;4.68;;
51382;SDS011;37475;43.358;1.248;2022-07-29T09:11:07;9.05;;;4.90;;
51382;SDS011;37475;43.358;1.248;2022-07-29T09:13:33;11.98;;;5.28;;
51382;SDS011;37475;43.358;1.248;2022-07-29T09:16:00;12.48;;;5.57;;
51382;SDS011;37475;43.358;1.248;2022-07-29T09:18:36;8.05;;;4.13;;
51382;SDS011;37475;43.358;1.248;2022-07-29T09:21:07;8.15;;;3.78;;
51382;SDS011;37475;43.358;1.248;2022-07-29T09:26:39;13.98;;;4.72;;
51382;SDS011;37475;43.358;1.248;2022-07-29T09:29:08;9.82;;;4.22;;
51382;SDS011;37475;43.358;1.248;2022-07-29T09:31:42;8.73;;;4.15;;
51382;SDS011;37475;43.358;1.248;2022-07-29T09:34:10;8.25;;;4.25;;
51382;SDS011;37475;43.358;1.248;2022-07-29T09:36:49;8.90;;;3.90;;
51382;SDS011;37475;43.358;1.248;2022-07-29T09:39:26;9.18;;;4.57;;
51382;SDS011;37475;43.358;1.248;2022-07-29T09:41:55;6.80;;;3.78;;
51382;SDS011;37475;43.358;1.248;2022-07-29T09:44:23;7.72;;;4.15;;
51382;SDS011;37475;43.358;1.248;2022-07-29T09:47:00;8.73;;;4.03;;
51382;SDS011;37475;43.358;1.248;2022-07-29T09:49:31;8.60;;;4.05;;
51382;SDS011;37475;43.358;1.248;2022-07-29T09:52:00;9.07;;;3.70;;
51382;SDS011;37475;43.358;1.248;2022-07-29T09:54:30;6.22;;;3.45;;
51382;SDS011;37475;43.358;1.248;2022-07-29T09:57:01;5.90;;;2.85;;
51382;SDS011;37475;43.358;1.248;2022-07-29T09:59:57;5.25;;;3.00;;
51382;SDS011;37475;43.358;1.248;2022-07-29T10:02:28;4.70;;;2.53;;
51382;SDS011;37475;43.358;1.248;2022-07-29T10:04:56;5.20;;;2.50;;
51382;SDS011;37475;43.358;1.248;2022-07-29T10:07:23;6.82;;;2.95;;
51382;SDS011;37475;43.358;1.248;2022-07-29T10:09:54;4.90;;;2.90;;
51382;SDS011;37475;43.358;1.248;2022-07-29T10:12:22;5.60;;;3.28;;
51382;SDS011;37475;43.358;1.248;2022-07-29T10:14:48;6.68;;;3.22;;
51382;SDS011;37475;43.358;1.248;2022-07-29T10:17:16;8.68;;;3.22;;
51382;SDS011;37475;43.358;1.248;2022-07-29T10:19:43;4.72;;;2.58;;
51382;SDS011;37475;43.358;1.248;2022-07-29T10:22:09;6.80;;;2.67;;
51382;SDS011;37475;43.358;1.248;2022-07-29T10:24:36;5.95;;;3.17;;
51382;SDS011;37475;43.358;1.248;2022-07-29T10:27:04;5.70;;;2.60;;
51382;SDS011;37475;43.358;1.248;2022-07-29T10:29:32;6.05;;;2.42;;
51382;SDS011;37475;43.358;1.248;2022-07-29T10:32:07;5.25;;;2.90;;
51382;SDS011;37475;43.358;1.248;2022-07-29T10:44:06;4.75;;;2.55;;
51382;SDS011;37475;43.358;1.248;2022-07-29T10:46:40;4.97;;;2.42;;
51382;SDS011;37475;43.358;1.248;2022-07-29T10:49:06;5.78;;;2.53;;
51382;SDS011;37475;43.358;1.248;2022-07-29T10:54:18;5.43;;;2.63;;
51382;SDS011;37475;43.358;1.248;2022-07-29T10:57:20;5.43;;;2.47;;
51382;SDS011;37475;43.358;1.248;2022-07-29T11:07:24;6.45;;;2.40;;
51382;SDS011;37475;43.358;1.248;2022-07-29T11:15:08;7.45;;;2.75;;
51382;SDS011;37475;43.358;1.248;2022-07-29T11:23:19;4.43;;;2.17;;
51382;SDS011;37475;43.358;1.248;2022-07-29T11:29:02;5.60;;;2.35;;
51382;SDS011;37475;43.358;1.248;2022-07-29T11:31:45;4.88;;;2.40;;
51382;SDS011;37475;43.358;1.248;2022-07-29T11:39:38;4.18;;;2.30;;
51382;SDS011;37475;43.358;1.248;2022-07-29T11:47:42;8.68;;;2.47;;
51382;SDS011;37475;43.358;1.248;2022-07-29T11:50:14;4.68;;;2.30;;
51382;SDS011;37475;43.358;1.248;2022-07-29T11:52:44;3.40;;;2.10;;
51382;SDS011;37475;43.358;1.248;2022-07-29T11:55:16;4.55;;;2.03;;
51382;SDS011;37475;43.358;1.248;2022-07-29T11:58:20;5.10;;;2.00;;
51382;SDS011;37475;43.358;1.248;2022-07-29T12:00:38;3.20;;;1.65;;
51382;SDS011;37475;43.358;1.248;2022-07-29T12:03:06;3.67;;;1.90;;
51382;SDS011;37475;43.358;1.248;2022-07-29T12:05:35;4.72;;;1.75;;
51382;SDS011;37475;43.358;1.248;2022-07-29T12:10:44;3.85;;;1.90;;
51382;SDS011;37475;43.358;1.248;2022-07-29T12:13:12;3.42;;;1.90;;
51382;SDS011;37475;43.358;1.248;2022-07-29T12:15:41;5.28;;;1.63;;
51382;SDS011;37475;43.358;1.248;2022-07-29T12:18:13;3.42;;;1.70;;
51382;SDS011;37475;43.358;1.248;2022-07-29T12:20:42;4.82;;;2.08;;
51382;SDS011;37475;43.358;1.248;2022-07-29T12:23:08;3.55;;;1.60;;
51382;SDS011;37475;43.358;1.248;2022-07-29T12:25:37;8.65;;;2.40;;
51382;SDS011;37475;43.358;1.248;2022-07-29T12:28:05;3.83;;;2.30;;
51382;SDS011;37475;43.358;1.248;2022-07-29T12:30:47;4.13;;;2.05;;
51382;SDS011;37475;43.358;1.248;2022-07-29T12:33:16;3.80;;;1.98;;
51382;SDS011;37475;43.358;1.248;2022-07-29T12:35:54;4.25;;;2.10;;
51382;SDS011;37475;43.358;1.248;2022-07-29T12:38:23;4.80;;;2.20;;
51382;SDS011;37475;43.358;1.248;2022-07-29T12:40:51;5.18;;;2.40;;
51382;SDS011;37475;43.358;1.248;2022-07-29T12:43:20;5.60;;;2.30;;
51382;SDS011;37475;43.358;1.248;2022-07-29T12:45:48;5.63;;;1.95;;
51382;SDS011;37475;43.358;1.248;2022-07-29T12:48:22;5.55;;;2.40;;
51382;SDS011;37475;43.358;1.248;2022-07-29T12:51:03;4.60;;;2.30;;
51382;SDS011;37475;43.358;1.248;2022-07-29T12:53:31;6.07;;;2.60;;
51382;SDS011;37475;43.358;1.248;2022-07-29T12:55:57;4.30;;;2.28;;
51382;SDS011;37475;43.358;1.248;2022-07-29T12:58:30;4.35;;;2.42;;
51382;SDS011;37475;43.358;1.248;2022-07-29T13:01:06;4.88;;;2.80;;
51382;SDS011;37475;43.358;1.248;2022-07-29T13:09:11;8.70;;;4.53;;
51382;SDS011;37475;43.358;1.248;2022-07-29T13:11:44;9.65;;;4.50;;
51382;SDS011;37475;43.358;1.248;2022-07-29T13:14:14;8.00;;;4.45;;
51382;SDS011;37475;43.358;1.248;2022-07-29T13:17:05;7.20;;;3.80;;
51382;SDS011;37475;43.358;1.248;2022-07-29T13:19:43;8.52;;;3.30;;
51382;SDS011;37475;43.358;1.248;2022-07-29T13:22:21;7.05;;;4.40;;
51382;SDS011;37475;43.358;1.248;2022-07-29T13:24:53;7.97;;;3.95;;
51382;SDS011;37475;43.358;1.248;2022-07-29T13:27:24;6.97;;;3.88;;
51382;SDS011;37475;43.358;1.248;2022-07-29T13:29:54;5.25;;;3.75;;
51382;SDS011;37475;43.358;1.248;2022-07-29T13:32:23;6.57;;;4.13;;
51382;SDS011;37475;43.358;1.248;2022-07-29T13:34:50;6.43;;;4.03;;
51382;SDS011;37475;43.358;1.248;2022-07-29T13:37:16;8.05;;;4.20;;
51382;SDS011;37475;43.358;1.248;2022-07-29T13:39:43;7.28;;;3.55;;
51382;SDS011;37475;43.358;1.248;2022-07-29T13:42:09;7.00;;;3.90;;
51382;SDS011;37475;43.358;1.248;2022-07-29T13:44:38;5.78;;;3.53;;
51382;SDS011;37475;43.358;1.248;2022-07-29T13:47:04;5.53;;;3.63;;
51382;SDS011;37475;43.358;1.248;2022-07-29T13:49:31;7.75;;;3.78;;
51382;SDS011;37475;43.358;1.248;2022-07-29T13:51:56;6.88;;;3.60;;
51382;SDS011;37475;43.358;1.248;2022-07-29T13:54:22;6.10;;;3.63;;
51382;SDS011;37475;43.358;1.248;2022-07-29T13:56:49;6.07;;;3.63;;
51382;SDS011;37475;43.358;1.248;2022-07-29T13:59:16;5.90;;;3.35;;
51382;SDS011;37475;43.358;1.248;2022-07-29T14:01:42;7.00;;;3.30;;
51382;SDS011;37475;43.358;1.248;2022-07-29T14:04:08;6.15;;;3.47;;
51382;SDS011;37475;43.358;1.248;2022-07-29T14:06:35;6.63;;;3.83;;
51382;SDS011;37475;43.358;1.248;2022-07-29T14:09:02;6.50;;;3.75;;
51382;SDS011;37475;43.358;1.248;2022-07-29T14:11:33;4.57;;;3.30;;
51382;SDS011;37475;43.358;1.248;2022-07-29T14:14:00;8.10;;;3.80;;
51382;SDS011;37475;43.358;1.248;2022-07-29T14:16:26;6.07;;;3.60;;
51382;SDS011;37475;43.358;1.248;2022-07-29T14:18:52;5.82;;;3.33;;
51382;SDS011;37475;43.358;1.248;2022-07-29T14:21:18;6.75;;;3.15;;
51382;SDS011;37475;43.358;1.248;2022-07-29T14:23:44;7.18;;;3.35;;
51382;SDS011;37475;43.358;1.248;2022-07-29T14:26:10;5.97;;;3.20;;
51382;SDS011;37475;43.358;1.248;2022-07-29T14:28:35;5.40;;;3.33;;
51382;SDS011;37475;43.358;1.248;2022-07-29T14:31:01;7.03;;;3.17;;
51382;SDS011;37475;43.358;1.248;2022-07-29T14:33:27;6.25;;;3.17;;
51382;SDS011;37475;43.358;1.248;2022-07-29T14:35:53;4.60;;;2.45;;
51382;SDS011;37475;43.358;1.248;2022-07-29T14:38:18;5.43;;;2.50;;
51382;SDS011;37475;43.358;1.248;2022-07-29T14:40:44;5.90;;;2.58;;
51382;SDS011;37475;43.358;1.248;2022-07-29T14:43:11;4.25;;;2.42;;
51382;SDS011;37475;43.358;1.248;2022-07-29T14:45:38;4.53;;;2.38;;
51382;SDS011;37475;43.358;1.248;2022-07-29T14:48:05;5.80;;;2.40;;
51382;SDS011;37475;43.358;1.248;2022-07-29T14:50:31;6.35;;;2.22;;
51382;SDS011;37475;43.358;1.248;2022-07-29T14:52:58;4.82;;;2.25;;
51382;SDS011;37475;43.358;1.248;2022-07-29T14:55:27;6.15;;;2.70;;
51382;SDS011;37475;43.358;1.248;2022-07-29T14:57:53;4.22;;;2.13;;
51382;SDS011;37475;43.358;1.248;2022-07-29T15:00:19;4.43;;;2.03;;
51382;SDS011;37475;43.358;1.248;2022-07-29T15:02:46;4.95;;;2.20;;
51382;SDS011;37475;43.358;1.248;2022-07-29T15:05:12;4.05;;;2.22;;
51382;SDS011;37475;43.358;1.248;2022-07-29T15:07:38;4.13;;;2.22;;
51382;SDS011;37475;43.358;1.248;2022-07-29T15:10:05;3.17;;;1.92;;
51382;SDS011;37475;43.358;1.248;2022-07-29T15:12:31;4.53;;;2.15;;
51382;SDS011;37475;43.358;1.248;2022-07-29T15:14:57;6.45;;;2.20;;
51382;SDS011;37475;43.358;1.248;2022-07-29T15:17:23;3.15;;;2.08;;
51382;SDS011;37475;43.358;1.248;2022-07-29T15:19:49;4.38;;;2.10;;
51382;SDS011;37475;43.358;1.248;2022-07-29T15:22:15;4.07;;;2.20;;
51382;SDS011;37475;43.358;1.248;2022-07-29T15:24:42;4.25;;;2.15;;
51382;SDS011;37475;43.358;1.248;2022-07-29T15:27:08;6.13;;;2.08;;
51382;SDS011;37475;43.358;1.248;2022-07-29T15:29:39;4.80;;;2.17;;
51382;SDS011;37475;43.358;1.248;2022-07-29T15:32:06;4.13;;;2.17;;
51382;SDS011;37475;43.358;1.248;2022-07-29T15:34:32;3.33;;;1.90;;
51382;SDS011;37475;43.358;1.248;2022-07-29T15:36:59;5.18;;;2.30;;
51382;SDS011;37475;43.358;1.248;2022-07-29T15:39:25;3.30;;;2.00;;
51382;SDS011;37475;43.358;1.248;2022-07-29T15:41:51;4.13;;;2.25;;
51382;SDS011;37475;43.358;1.248;2022-07-29T15:44:17;4.00;;;1.80;;
51382;SDS011;37475;43.358;1.248;2022-07-29T15:46:44;4.13;;;2.03;;
51382;SDS011;37475;43.358;1.248;2022-07-29T15:49:30;3.72;;;2.10;;
51382;SDS011;37475;43.358;1.248;2022-07-29T15:52:02;4.60;;;2.00;;
51382;SDS011;37475;43.358;1.248;2022-07-29T15:54:34;3.92;;;2.13;;
51382;SDS011;37475;43.358;1.248;2022-07-29T15:57:02;4.05;;;1.95;;
51382;SDS011;37475;43.358;1.248;2022-07-29T15:59:29;3.78;;;2.10;;
51382;SDS011;37475;43.358;1.248;2022-07-29T16:01:55;4.53;;;2.05;;
51382;SDS011;37475;43.358;1.248;2022-07-29T16:04:21;5.57;;;2.20;;
51382;SDS011;37475;43.358;1.248;2022-07-29T16:06:48;3.53;;;2.00;;
51382;SDS011;37475;43.358;1.248;2022-07-29T16:09:14;4.72;;;1.92;;
51382;SDS011;37475;43.358;1.248;2022-07-29T16:11:41;5.20;;;2.00;;
51382;SDS011;37475;43.358;1.248;2022-07-29T16:14:08;5.63;;;2.10;;